SIA36 WSSS-KLAX
Flight info
| Callsign | SIA36 |
|---|---|
| Flight time | N/A |
| Altitude | 35000 |
| Route | TOMAN3A TOMAN L625 AKMON/K0932F350 L625 UDOSI/K0926F360 L625 ANOKI/N0500F360 L625 MEVIN/N0496F370 B462 KAZIK Y59 AZAMA Y57 POROT/N0483F390 OTR11 LEPKI DCT 41N160E 44N170E 45N180E 47N170W/N0496F410 50N160W 52N150W 50N140W 45N130W DCT NATTE DCT OAK DCT BURGL IRNMN2 |
| Aircraft | A359/H-SDE2E3GHIJ3J4J5LM1ORWXY/LB1D1 |
Departure
| Time | 2026-05-07 21:49 |
|---|---|
| Airport | Singapore Changi Airport (WSSS) |
Arrival
| Time | N/A |
|---|---|
| Airport | Los Angeles International Airport (KLAX) |
| Time | Latitude | Longitude | Altitude | Speed | Heading |
|---|---|---|---|---|---|
| 2026-05-07 21:09 | 1.34995 | 103.98219 | 36 ft | 0 kts | 153° |
| 2026-05-07 21:30 | 1.34997 | 103.98218 | 36 ft | 3 kts | 153° |
| 2026-05-07 21:30 | 1.35014 | 103.98210 | 35 ft | 3 kts | 153° |
| 2026-05-07 21:30 | 1.35031 | 103.98201 | 34 ft | 3 kts | 153° |
| 2026-05-07 21:31 | 1.35047 | 103.98193 | 35 ft | 3 kts | 153° |
| 2026-05-07 21:31 | 1.35064 | 103.98185 | 34 ft | 3 kts | 153° |
| 2026-05-07 21:31 | 1.35080 | 103.98177 | 32 ft | 3 kts | 153° |
| 2026-05-07 21:31 | 1.35099 | 103.98169 | 34 ft | 3 kts | 170° |
| 2026-05-07 21:32 | 1.35119 | 103.98168 | 33 ft | 3 kts | 191° |
| 2026-05-07 21:32 | 1.35138 | 103.98174 | 34 ft | 3 kts | 211° |
| 2026-05-07 21:32 | 1.35149 | 103.98182 | 32 ft | 1 kts | 222° |
| 2026-05-07 21:32 | 1.35150 | 103.98182 | 32 ft | 0 kts | 222° |
| 2026-05-07 21:38 | 1.35136 | 103.98170 | 36 ft | 10 kts | 222° |
| 2026-05-07 21:38 | 1.35078 | 103.98121 | 37 ft | 11 kts | 216° |
| 2026-05-07 21:38 | 1.35014 | 103.98084 | 37 ft | 10 kts | 206° |
| 2026-05-07 21:38 | 1.34949 | 103.98053 | 37 ft | 10 kts | 205° |
| 2026-05-07 21:39 | 1.34883 | 103.98023 | 37 ft | 10 kts | 203° |
| 2026-05-07 21:39 | 1.34818 | 103.98015 | 37 ft | 9 kts | 155° |
| 2026-05-07 21:39 | 1.34778 | 103.98061 | 37 ft | 9 kts | 120° |
| 2026-05-07 21:39 | 1.34752 | 103.98119 | 37 ft | 10 kts | 112° |
| 2026-05-07 21:40 | 1.34725 | 103.98183 | 36 ft | 10 kts | 112° |
| 2026-05-07 21:40 | 1.34696 | 103.98251 | 35 ft | 11 kts | 112° |
| 2026-05-07 21:40 | 1.34665 | 103.98326 | 33 ft | 12 kts | 113° |
| 2026-05-07 21:40 | 1.34631 | 103.98406 | 33 ft | 13 kts | 113° |
| 2026-05-07 21:41 | 1.34594 | 103.98493 | 32 ft | 14 kts | 113° |
| 2026-05-07 21:41 | 1.34556 | 103.98581 | 31 ft | 15 kts | 112° |
| 2026-05-07 21:41 | 1.34515 | 103.98680 | 30 ft | 15 kts | 112° |
| 2026-05-07 21:41 | 1.34472 | 103.98781 | 29 ft | 16 kts | 112° |
| 2026-05-07 21:42 | 1.34430 | 103.98881 | 29 ft | 16 kts | 113° |
| 2026-05-07 21:42 | 1.34347 | 103.98918 | 29 ft | 14 kts | 190° |
| 2026-05-07 21:42 | 1.34267 | 103.98884 | 29 ft | 13 kts | 203° |
| 2026-05-07 21:42 | 1.34185 | 103.98850 | 29 ft | 13 kts | 203° |
| 2026-05-07 21:43 | 1.34105 | 103.98816 | 28 ft | 13 kts | 203° |
| 2026-05-07 21:43 | 1.34022 | 103.98780 | 28 ft | 13 kts | 203° |
| 2026-05-07 21:43 | 1.33939 | 103.98745 | 28 ft | 13 kts | 203° |
| 2026-05-07 21:43 | 1.33856 | 103.98710 | 28 ft | 13 kts | 203° |
| 2026-05-07 21:44 | 1.33773 | 103.98674 | 28 ft | 13 kts | 203° |
| 2026-05-07 21:44 | 1.33688 | 103.98638 | 28 ft | 13 kts | 201° |
| 2026-05-07 21:44 | 1.33603 | 103.98604 | 28 ft | 13 kts | 202° |
| 2026-05-07 21:44 | 1.33517 | 103.98569 | 28 ft | 14 kts | 202° |
| 2026-05-07 21:45 | 1.33429 | 103.98532 | 28 ft | 14 kts | 202° |
| 2026-05-07 21:45 | 1.33331 | 103.98491 | 28 ft | 16 kts | 202° |
| 2026-05-07 21:45 | 1.33228 | 103.98448 | 28 ft | 16 kts | 202° |
| 2026-05-07 21:45 | 1.33128 | 103.98406 | 28 ft | 16 kts | 202° |
| 2026-05-07 21:46 | 1.33028 | 103.98363 | 28 ft | 16 kts | 203° |
| 2026-05-07 21:46 | 1.32946 | 103.98376 | 28 ft | 7 kts | 128° |
| 2026-05-07 21:46 | 1.32943 | 103.98382 | 28 ft | 0 kts | 119° |
| 2026-05-07 21:47 | 1.32927 | 103.98411 | 28 ft | 11 kts | 116° |
| 2026-05-07 21:47 | 1.32907 | 103.98501 | 28 ft | 13 kts | 65° |
| 2026-05-07 21:48 | 1.32982 | 103.98545 | 28 ft | 9 kts | 22° |
| 2026-05-07 21:48 | 1.33013 | 103.98558 | 29 ft | 23 kts | 23° |
| 2026-05-07 21:48 | 1.33352 | 103.98700 | 27 ft | 81 kts | 22° |
| 2026-05-07 21:48 | 1.34035 | 103.98987 | 30 ft | 130 kts | 23° |
| 2026-05-07 21:49 | 1.35004 | 103.99393 | 31 ft | 172 kts | 23° |
| 2026-05-07 21:49 | 1.36124 | 103.99855 | 624 ft | 160 kts | 21° |
| 2026-05-07 21:49 | 1.37125 | 104.00250 | 1118 ft | 161 kts | 22° |
| 2026-05-07 21:49 | 1.38206 | 104.00671 | 1342 ft | 172 kts | 21° |
| 2026-05-07 21:50 | 1.39363 | 104.01120 | 1572 ft | 185 kts | 21° |
| 2026-05-07 21:50 | 1.40611 | 104.01604 | 1769 ft | 200 kts | 21° |
| 2026-05-07 21:50 | 1.41943 | 104.02120 | 2052 ft | 210 kts | 21° |
| 2026-05-07 21:50 | 1.43350 | 104.02666 | 2282 ft | 225 kts | 21° |
| 2026-05-07 21:51 | 1.44862 | 104.03251 | 2487 ft | 242 kts | 21° |
| 2026-05-07 21:51 | 1.46470 | 104.03924 | 2677 ft | 260 kts | 29° |
| 2026-05-07 21:51 | 1.47741 | 104.05202 | 3100 ft | 263 kts | 64° |
| 2026-05-07 21:51 | 1.48103 | 104.06959 | 3678 ft | 260 kts | 95° |
| 2026-05-07 21:52 | 1.47723 | 104.08754 | 4011 ft | 271 kts | 110° |
| 2026-05-07 21:52 | 1.46888 | 104.10475 | 4434 ft | 276 kts | 119° |
| 2026-05-07 21:52 | 1.46020 | 104.12181 | 5040 ft | 276 kts | 116° |
| 2026-05-07 21:52 | 1.45203 | 104.13927 | 5542 ft | 280 kts | 115° |
| 2026-05-07 21:53 | 1.44388 | 104.15705 | 6082 ft | 282 kts | 115° |
| 2026-05-07 21:53 | 1.43579 | 104.17497 | 6622 ft | 284 kts | 115° |
| 2026-05-07 21:53 | 1.42767 | 104.19303 | 7153 ft | 285 kts | 115° |
| 2026-05-07 21:53 | 1.41946 | 104.21115 | 7699 ft | 287 kts | 115° |
| 2026-05-07 21:54 | 1.41111 | 104.22929 | 8261 ft | 289 kts | 115° |
| 2026-05-07 21:54 | 1.40265 | 104.24761 | 8843 ft | 291 kts | 115° |
| 2026-05-07 21:54 | 1.39417 | 104.26597 | 9414 ft | 293 kts | 115° |
| 2026-05-07 21:54 | 1.38560 | 104.28453 | 9971 ft | 295 kts | 115° |
| 2026-05-07 21:55 | 1.37691 | 104.30332 | 10348 ft | 304 kts | 115° |
| 2026-05-07 21:55 | 1.36783 | 104.32295 | 10591 ft | 317 kts | 115° |
| 2026-05-07 21:55 | 1.35852 | 104.34309 | 10827 ft | 330 kts | 115° |
| 2026-05-07 21:55 | 1.34871 | 104.36432 | 11061 ft | 342 kts | 115° |
| 2026-05-07 21:56 | 1.33859 | 104.38626 | 11292 ft | 353 kts | 114° |
| 2026-05-07 21:56 | 1.33099 | 104.40978 | 11471 ft | 365 kts | 98° |
| 2026-05-07 21:56 | 1.33005 | 104.43536 | 11695 ft | 374 kts | 89° |
| 2026-05-07 21:56 | 1.33087 | 104.46168 | 11899 ft | 383 kts | 88° |
| 2026-05-07 21:57 | 1.33174 | 104.48862 | 12124 ft | 391 kts | 88° |
| 2026-05-07 21:57 | 1.33252 | 104.51589 | 12471 ft | 394 kts | 88° |
| 2026-05-07 21:57 | 1.33326 | 104.54336 | 12856 ft | 397 kts | 88° |
| 2026-05-07 21:57 | 1.33396 | 104.57099 | 13248 ft | 399 kts | 89° |
| 2026-05-07 21:58 | 1.33465 | 104.59876 | 13637 ft | 401 kts | 89° |
| 2026-05-07 21:58 | 1.33533 | 104.62668 | 13983 ft | 402 kts | 89° |
| 2026-05-07 21:58 | 1.33601 | 104.65470 | 14316 ft | 404 kts | 89° |
| 2026-05-07 21:58 | 1.33669 | 104.68278 | 14653 ft | 406 kts | 89° |
| 2026-05-07 21:59 | 1.33738 | 104.71103 | 14985 ft | 407 kts | 88° |
| 2026-05-07 21:59 | 1.33807 | 104.73938 | 15307 ft | 409 kts | 88° |
| 2026-05-07 21:59 | 1.33876 | 104.76779 | 15623 ft | 410 kts | 88° |
| 2026-05-07 21:59 | 1.33945 | 104.79637 | 15934 ft | 412 kts | 88° |
| 2026-05-07 22:00 | 1.34014 | 104.82501 | 16234 ft | 414 kts | 88° |
| 2026-05-07 22:00 | 1.34083 | 104.85383 | 16554 ft | 415 kts | 88° |
| 2026-05-07 22:00 | 1.34129 | 104.87297 | 16748 ft | 416 kts | 88° |
| 2026-05-07 22:00 | 1.34198 | 104.90190 | 17052 ft | 418 kts | 88° |
| 2026-05-07 22:01 | 1.34268 | 104.93097 | 17352 ft | 419 kts | 88° |
| 2026-05-07 22:01 | 1.34338 | 104.96013 | 17651 ft | 421 kts | 88° |
| 2026-05-07 22:01 | 1.34409 | 104.98933 | 17932 ft | 422 kts | 88° |
| 2026-05-07 22:01 | 1.34480 | 105.01872 | 18202 ft | 424 kts | 88° |
| 2026-05-07 22:02 | 1.34550 | 105.04825 | 18441 ft | 426 kts | 88° |
| 2026-05-07 22:02 | 1.34622 | 105.07783 | 18678 ft | 427 kts | 88° |
| 2026-05-07 22:02 | 1.34693 | 105.10754 | 18910 ft | 428 kts | 88° |
| 2026-05-07 22:02 | 1.34764 | 105.13735 | 19154 ft | 430 kts | 88° |
| 2026-05-07 22:03 | 1.34836 | 105.16730 | 19386 ft | 431 kts | 88° |
| 2026-05-07 22:03 | 1.34908 | 105.19723 | 19615 ft | 433 kts | 88° |
| 2026-05-07 22:03 | 1.34980 | 105.22728 | 19842 ft | 434 kts | 88° |
| 2026-05-07 22:03 | 1.35052 | 105.25752 | 20078 ft | 435 kts | 88° |
| 2026-05-07 22:04 | 1.35124 | 105.28776 | 20310 ft | 436 kts | 88° |
| 2026-05-07 22:04 | 1.35197 | 105.31801 | 20538 ft | 438 kts | 88° |
| 2026-05-07 22:04 | 1.35270 | 105.34856 | 20775 ft | 439 kts | 88° |
| 2026-05-07 22:04 | 1.35343 | 105.37908 | 20996 ft | 441 kts | 88° |
| 2026-05-07 22:05 | 1.35416 | 105.40976 | 21225 ft | 442 kts | 88° |
| 2026-05-07 22:05 | 1.35489 | 105.44054 | 21464 ft | 443 kts | 88° |
| 2026-05-07 22:05 | 1.35563 | 105.47137 | 21694 ft | 445 kts | 88° |
| 2026-05-07 22:05 | 1.35636 | 105.50235 | 21924 ft | 446 kts | 88° |
| 2026-05-07 22:06 | 1.35710 | 105.53341 | 22158 ft | 448 kts | 88° |
| 2026-05-07 22:06 | 1.35785 | 105.56458 | 22392 ft | 449 kts | 88° |
| 2026-05-07 22:06 | 1.35859 | 105.59569 | 22621 ft | 451 kts | 88° |
| 2026-05-07 22:06 | 1.35933 | 105.62707 | 22859 ft | 453 kts | 88° |
| 2026-05-07 22:07 | 1.36008 | 105.65854 | 23089 ft | 454 kts | 88° |
| 2026-05-07 22:07 | 1.36083 | 105.69017 | 23329 ft | 456 kts | 88° |
| 2026-05-07 22:07 | 1.36158 | 105.72190 | 23532 ft | 457 kts | 88° |
| 2026-05-07 22:07 | 1.36234 | 105.75373 | 23730 ft | 459 kts | 88° |
| 2026-05-07 22:08 | 1.36310 | 105.78565 | 23910 ft | 461 kts | 88° |
| 2026-05-07 22:08 | 1.36387 | 105.81768 | 24108 ft | 462 kts | 88° |
| 2026-05-07 22:08 | 1.36503 | 105.84987 | 24307 ft | 464 kts | 85° |
| 2026-05-07 22:08 | 1.36980 | 105.88177 | 24508 ft | 466 kts | 77° |
| 2026-05-07 22:09 | 1.38011 | 105.91247 | 24714 ft | 468 kts | 66° |
| 2026-05-07 22:09 | 1.39654 | 105.94062 | 24926 ft | 471 kts | 54° |
| 2026-05-07 22:09 | 1.41887 | 105.96472 | 25120 ft | 475 kts | 41° |
| 2026-05-07 22:09 | 1.44616 | 105.98350 | 25344 ft | 479 kts | 30° |
| 2026-05-07 22:10 | 1.47625 | 105.99807 | 25577 ft | 483 kts | 25° |
| 2026-05-07 22:10 | 1.50760 | 106.01036 | 25801 ft | 485 kts | 22° |
| 2026-05-07 22:10 | 1.53951 | 106.02169 | 26042 ft | 487 kts | 21° |
| 2026-05-07 22:10 | 1.57164 | 106.03285 | 26287 ft | 489 kts | 21° |
| 2026-05-07 22:11 | 1.60380 | 106.04422 | 26532 ft | 491 kts | 21° |
| 2026-05-07 22:11 | 1.63593 | 106.05588 | 26776 ft | 493 kts | 22° |
| 2026-05-07 22:11 | 1.66807 | 106.06782 | 27024 ft | 495 kts | 22° |
| 2026-05-07 22:11 | 1.70031 | 106.07998 | 27278 ft | 497 kts | 22° |
| 2026-05-07 22:12 | 1.73270 | 106.09229 | 27535 ft | 499 kts | 22° |
| 2026-05-07 22:12 | 1.76517 | 106.10468 | 27770 ft | 501 kts | 22° |
| 2026-05-07 22:12 | 1.79779 | 106.11712 | 28013 ft | 503 kts | 22° |
| 2026-05-07 22:12 | 1.83054 | 106.12961 | 28262 ft | 505 kts | 22° |
| 2026-05-07 22:13 | 1.86342 | 106.14213 | 28493 ft | 507 kts | 22° |
| 2026-05-07 22:13 | 1.89643 | 106.15469 | 28722 ft | 508 kts | 22° |
| 2026-05-07 22:13 | 1.92953 | 106.16728 | 28941 ft | 510 kts | 22° |
| 2026-05-07 22:13 | 1.96272 | 106.17990 | 29233 ft | 510 kts | 22° |
| 2026-05-07 22:14 | 1.99590 | 106.19251 | 29568 ft | 509 kts | 22° |
| 2026-05-07 22:14 | 2.02902 | 106.20509 | 29877 ft | 509 kts | 22° |
| 2026-05-07 22:14 | 2.06210 | 106.21767 | 30137 ft | 509 kts | 22° |
| 2026-05-07 22:14 | 2.09522 | 106.23026 | 30402 ft | 508 kts | 22° |
| 2026-05-07 22:15 | 2.12821 | 106.24281 | 30663 ft | 508 kts | 22° |
| 2026-05-07 22:15 | 2.16123 | 106.25536 | 30918 ft | 507 kts | 22° |
| 2026-05-07 22:15 | 2.19420 | 106.26790 | 31168 ft | 506 kts | 22° |
| 2026-05-07 22:15 | 2.22712 | 106.28042 | 31421 ft | 506 kts | 22° |
| 2026-05-07 22:16 | 2.26001 | 106.29294 | 31668 ft | 506 kts | 22° |
| 2026-05-07 22:16 | 2.29286 | 106.30543 | 31913 ft | 505 kts | 22° |
| 2026-05-07 22:16 | 2.32557 | 106.31788 | 32159 ft | 505 kts | 22° |
| 2026-05-07 22:16 | 2.35837 | 106.33036 | 32393 ft | 504 kts | 22° |
| 2026-05-07 22:17 | 2.39116 | 106.34283 | 32642 ft | 504 kts | 22° |
| 2026-05-07 22:17 | 2.42387 | 106.35528 | 32851 ft | 503 kts | 22° |
| 2026-05-07 22:17 | 2.45657 | 106.36772 | 33084 ft | 503 kts | 22° |
| 2026-05-07 22:17 | 2.48926 | 106.38016 | 33302 ft | 503 kts | 22° |
| 2026-05-07 22:18 | 2.52195 | 106.39261 | 33526 ft | 502 kts | 21° |
| 2026-05-07 22:18 | 2.58570 | 106.42071 | 33940 ft | 500 kts | 27° |
| 2026-05-07 22:18 | 2.61669 | 106.43635 | 34122 ft | 499 kts | 28° |
| 2026-05-07 22:19 | 2.64758 | 106.45225 | 34304 ft | 499 kts | 28° |
| 2026-05-07 22:19 | 2.67840 | 106.46826 | 34483 ft | 498 kts | 28° |
| 2026-05-07 22:19 | 2.70913 | 106.48427 | 34658 ft | 498 kts | 28° |
| 2026-05-07 22:19 | 2.73984 | 106.50026 | 34796 ft | 498 kts | 28° |
| 2026-05-07 22:20 | 2.77069 | 106.51634 | 34820 ft | 501 kts | 28° |
| 2026-05-07 22:20 | 2.83281 | 106.54857 | 34830 ft | 504 kts | 28° |
| 2026-05-07 22:21 | 2.89497 | 106.58078 | 34827 ft | 503 kts | 28° |
| 2026-05-07 22:21 | 2.95703 | 106.61284 | 34828 ft | 503 kts | 28° |
| 2026-05-07 22:22 | 3.01920 | 106.64496 | 34830 ft | 503 kts | 28° |
| 2026-05-07 22:22 | 3.08097 | 106.67692 | 34828 ft | 503 kts | 28° |
| 2026-05-07 22:23 | 3.14314 | 106.70911 | 34828 ft | 503 kts | 28° |
| 2026-05-07 22:23 | 3.20525 | 106.74127 | 34829 ft | 503 kts | 28° |
| 2026-05-07 22:24 | 3.26740 | 106.77346 | 34830 ft | 503 kts | 28° |
| 2026-05-07 22:24 | 3.32956 | 106.80566 | 34829 ft | 503 kts | 28° |
| 2026-05-07 22:25 | 3.39165 | 106.83782 | 34827 ft | 503 kts | 28° |
| 2026-05-07 22:25 | 3.45377 | 106.87000 | 34832 ft | 502 kts | 28° |
| 2026-05-07 22:26 | 3.51581 | 106.90215 | 34829 ft | 502 kts | 28° |
| 2026-05-07 22:26 | 3.57622 | 106.93675 | 34840 ft | 501 kts | 35° |
| 2026-05-07 22:27 | 3.63362 | 106.97632 | 34830 ft | 501 kts | 36° |
| 2026-05-07 22:27 | 3.69043 | 107.01656 | 34834 ft | 500 kts | 36° |
| 2026-05-07 22:28 | 3.74724 | 107.05688 | 34831 ft | 500 kts | 36° |
| 2026-05-07 22:28 | 3.80360 | 107.09676 | 34830 ft | 499 kts | 36° |
| 2026-05-07 22:29 | 3.86032 | 107.13684 | 34835 ft | 499 kts | 36° |
| 2026-05-07 22:29 | 3.91698 | 107.17686 | 34833 ft | 498 kts | 36° |
| 2026-05-07 22:30 | 3.97366 | 107.21691 | 34834 ft | 498 kts | 36° |
| 2026-05-07 22:30 | 4.03027 | 107.25692 | 34835 ft | 498 kts | 36° |
| 2026-05-07 22:31 | 4.08684 | 107.29690 | 34834 ft | 498 kts | 36° |
| 2026-05-07 22:31 | 4.14327 | 107.33680 | 34835 ft | 498 kts | 36° |
| 2026-05-07 22:32 | 4.19985 | 107.37682 | 34833 ft | 498 kts | 36° |
| 2026-05-07 22:32 | 4.25640 | 107.41681 | 34834 ft | 498 kts | 36° |
| 2026-05-07 22:33 | 4.31297 | 107.45682 | 34832 ft | 497 kts | 36° |
| 2026-05-07 22:33 | 4.36953 | 107.49684 | 34837 ft | 497 kts | 36° |
| 2026-05-07 22:34 | 4.42602 | 107.53682 | 34832 ft | 497 kts | 36° |
| 2026-05-07 22:34 | 4.48250 | 107.57680 | 34832 ft | 497 kts | 36° |
| 2026-05-07 22:35 | 4.53904 | 107.61682 | 34833 ft | 497 kts | 36° |
| 2026-05-07 22:35 | 4.59511 | 107.65652 | 34835 ft | 497 kts | 36° |
| 2026-05-07 22:36 | 4.65160 | 107.69652 | 34833 ft | 497 kts | 36° |
| 2026-05-07 22:36 | 4.70797 | 107.73645 | 34835 ft | 497 kts | 36° |
| 2026-05-07 22:37 | 4.76439 | 107.77643 | 34835 ft | 497 kts | 36° |
| 2026-05-07 22:37 | 4.82091 | 107.81647 | 34831 ft | 497 kts | 36° |
| 2026-05-07 22:38 | 4.87734 | 107.85647 | 34835 ft | 497 kts | 36° |
| 2026-05-07 22:38 | 4.93372 | 107.89644 | 34832 ft | 497 kts | 36° |
| 2026-05-07 22:39 | 4.99018 | 107.93649 | 34835 ft | 497 kts | 36° |
| 2026-05-07 22:39 | 5.04668 | 107.97638 | 34836 ft | 497 kts | 35° |
| 2026-05-07 22:40 | 5.10341 | 108.01609 | 34836 ft | 497 kts | 35° |
| 2026-05-07 22:40 | 5.16005 | 108.05579 | 34839 ft | 497 kts | 35° |
| 2026-05-07 22:41 | 5.21673 | 108.09559 | 34837 ft | 497 kts | 36° |
| 2026-05-07 22:41 | 5.27323 | 108.13531 | 34839 ft | 497 kts | 36° |
| 2026-05-07 22:42 | 5.32950 | 108.17488 | 34841 ft | 497 kts | 35° |
| 2026-05-07 22:42 | 5.38651 | 108.21498 | 34837 ft | 497 kts | 35° |
| 2026-05-07 22:43 | 5.44280 | 108.25457 | 34839 ft | 497 kts | 35° |
| 2026-05-07 22:43 | 5.49941 | 108.29439 | 34841 ft | 497 kts | 35° |
| 2026-05-07 22:44 | 5.55617 | 108.33433 | 34839 ft | 498 kts | 35° |
| 2026-05-07 22:44 | 5.61287 | 108.37425 | 34840 ft | 498 kts | 35° |
| 2026-05-07 22:45 | 5.66951 | 108.41413 | 34839 ft | 498 kts | 35° |
| 2026-05-07 22:45 | 5.72616 | 108.45402 | 34839 ft | 498 kts | 35° |
| 2026-05-07 22:46 | 5.78286 | 108.49396 | 34840 ft | 498 kts | 35° |
| 2026-05-07 22:46 | 5.83492 | 108.53064 | 34841 ft | 498 kts | 35° |
| 2026-05-07 22:47 | 5.89161 | 108.57059 | 34840 ft | 498 kts | 35° |
| 2026-05-07 22:47 | 5.94829 | 108.61054 | 34840 ft | 498 kts | 35° |
| 2026-05-07 22:48 | 5.99541 | 108.64377 | 34842 ft | 498 kts | 35° |
| 2026-05-07 22:48 | 6.05210 | 108.68375 | 34843 ft | 498 kts | 35° |
| 2026-05-07 22:49 | 6.10877 | 108.72372 | 34847 ft | 498 kts | 35° |
| 2026-05-07 22:49 | 6.16533 | 108.76364 | 34844 ft | 498 kts | 35° |
| 2026-05-07 22:50 | 6.22211 | 108.80371 | 34845 ft | 498 kts | 35° |
| 2026-05-07 22:50 | 6.27886 | 108.84378 | 34847 ft | 498 kts | 35° |
| 2026-05-07 22:51 | 6.33555 | 108.88381 | 34843 ft | 498 kts | 35° |
| 2026-05-07 22:51 | 6.39214 | 108.92379 | 34845 ft | 499 kts | 35° |
| 2026-05-07 22:52 | 6.44890 | 108.96390 | 34846 ft | 499 kts | 35° |
| 2026-05-07 22:52 | 6.50568 | 109.00404 | 34846 ft | 499 kts | 35° |
| 2026-05-07 22:53 | 6.56207 | 109.04390 | 34845 ft | 499 kts | 35° |
| 2026-05-07 22:53 | 6.61920 | 109.08431 | 34845 ft | 499 kts | 35° |
| 2026-05-07 22:54 | 6.67561 | 109.12421 | 34847 ft | 499 kts | 35° |
| 2026-05-07 22:54 | 6.73231 | 109.16433 | 34844 ft | 499 kts | 35° |
| 2026-05-07 22:55 | 6.78907 | 109.20450 | 34846 ft | 498 kts | 34° |
| 2026-05-07 22:55 | 6.84573 | 109.24462 | 34845 ft | 498 kts | 34° |
| 2026-05-07 22:56 | 6.90243 | 109.28477 | 34846 ft | 498 kts | 34° |
| 2026-05-07 22:56 | 6.95891 | 109.32479 | 34848 ft | 498 kts | 34° |
| 2026-05-07 22:57 | 7.01560 | 109.36496 | 34846 ft | 498 kts | 34° |
| 2026-05-07 22:57 | 7.07228 | 109.40514 | 34846 ft | 498 kts | 34° |
| 2026-05-07 22:58 | 7.12892 | 109.44530 | 34842 ft | 498 kts | 34° |
| 2026-05-07 22:58 | 7.18558 | 109.48549 | 34841 ft | 498 kts | 34° |
| 2026-05-07 22:59 | 7.24218 | 109.52564 | 34843 ft | 498 kts | 34° |
| 2026-05-07 22:59 | 7.29883 | 109.56585 | 34844 ft | 498 kts | 34° |
| 2026-05-07 23:00 | 7.35500 | 109.60574 | 34844 ft | 498 kts | 34° |
| 2026-05-07 23:00 | 7.41165 | 109.64597 | 34844 ft | 498 kts | 34° |
| 2026-05-07 23:01 | 7.46824 | 109.68617 | 34842 ft | 498 kts | 34° |
| 2026-05-07 23:01 | 7.52467 | 109.72627 | 34841 ft | 498 kts | 34° |
| 2026-05-07 23:02 | 7.58132 | 109.76654 | 34844 ft | 498 kts | 34° |
| 2026-05-07 23:02 | 7.63785 | 109.80675 | 34842 ft | 498 kts | 34° |
| 2026-05-07 23:03 | 7.69450 | 109.84704 | 34843 ft | 498 kts | 34° |
| 2026-05-07 23:03 | 7.75110 | 109.88732 | 34839 ft | 498 kts | 34° |
| 2026-05-07 23:04 | 7.80766 | 109.92758 | 34844 ft | 498 kts | 34° |
| 2026-05-07 23:04 | 7.86421 | 109.96784 | 34853 ft | 497 kts | 34° |
| 2026-05-07 23:05 | 7.92071 | 110.00808 | 34845 ft | 497 kts | 34° |
| 2026-05-07 23:05 | 7.97725 | 110.04837 | 34846 ft | 497 kts | 34° |
| 2026-05-07 23:06 | 8.03373 | 110.08864 | 34847 ft | 497 kts | 34° |
| 2026-05-07 23:06 | 8.09004 | 110.12879 | 34845 ft | 497 kts | 34° |
| 2026-05-07 23:07 | 8.14650 | 110.16906 | 34847 ft | 497 kts | 34° |
| 2026-05-07 23:07 | 8.20300 | 110.20937 | 34847 ft | 497 kts | 34° |
| 2026-05-07 23:08 | 8.25900 | 110.24949 | 34846 ft | 497 kts | 34° |
| 2026-05-07 23:08 | 8.31557 | 110.29028 | 34848 ft | 496 kts | 34° |
| 2026-05-07 23:09 | 8.37131 | 110.33049 | 34845 ft | 496 kts | 34° |
| 2026-05-07 23:09 | 8.42752 | 110.37102 | 34851 ft | 496 kts | 34° |
| 2026-05-07 23:10 | 8.48368 | 110.41151 | 34852 ft | 496 kts | 34° |
| 2026-05-07 23:10 | 8.53989 | 110.45205 | 34852 ft | 496 kts | 34° |
| 2026-05-07 23:11 | 8.59605 | 110.49257 | 34852 ft | 496 kts | 34° |
| 2026-05-07 23:11 | 8.65205 | 110.53298 | 34851 ft | 496 kts | 34° |
| 2026-05-07 23:12 | 8.70817 | 110.57350 | 34850 ft | 496 kts | 34° |
| 2026-05-07 23:12 | 8.76435 | 110.61409 | 34850 ft | 496 kts | 34° |
| 2026-05-07 23:13 | 8.82054 | 110.65469 | 34853 ft | 496 kts | 34° |
| 2026-05-07 23:13 | 8.87673 | 110.69530 | 34855 ft | 496 kts | 34° |
| 2026-05-07 23:14 | 8.93290 | 110.73592 | 34856 ft | 497 kts | 34° |
| 2026-05-07 23:14 | 8.98908 | 110.77656 | 34856 ft | 497 kts | 34° |
| 2026-05-07 23:15 | 9.04533 | 110.81728 | 34855 ft | 497 kts | 34° |
| 2026-05-07 23:15 | 9.10159 | 110.85801 | 34858 ft | 497 kts | 34° |
| 2026-05-07 23:16 | 9.15785 | 110.89875 | 34857 ft | 497 kts | 34° |
| 2026-05-07 23:16 | 9.21398 | 110.93941 | 34857 ft | 498 kts | 34° |
| 2026-05-07 23:17 | 9.27026 | 110.98020 | 34856 ft | 498 kts | 34° |
| 2026-05-07 23:17 | 9.32657 | 111.02104 | 34859 ft | 498 kts | 34° |
| 2026-05-07 23:18 | 9.38292 | 111.06192 | 34860 ft | 498 kts | 34° |
| 2026-05-07 23:18 | 9.43933 | 111.10286 | 34861 ft | 499 kts | 34° |
| 2026-05-07 23:19 | 9.49533 | 111.14352 | 34860 ft | 499 kts | 34° |
| 2026-05-07 23:19 | 9.55169 | 111.18445 | 35047 ft | 497 kts | 34° |
| 2026-05-07 23:19 | 9.57964 | 111.20484 | 35346 ft | 493 kts | 34° |
| 2026-05-07 23:20 | 9.60748 | 111.22508 | 35562 ft | 492 kts | 34° |
| 2026-05-07 23:20 | 9.63527 | 111.24525 | 35746 ft | 491 kts | 34° |
| 2026-05-07 23:20 | 9.66311 | 111.26547 | 35845 ft | 493 kts | 34° |
| 2026-05-07 23:21 | 9.71911 | 111.30615 | 35862 ft | 497 kts | 34° |
| 2026-05-07 23:21 | 9.77515 | 111.34690 | 35865 ft | 497 kts | 34° |
| 2026-05-07 23:22 | 9.83129 | 111.38776 | 35862 ft | 497 kts | 34° |
| 2026-05-07 23:22 | 9.88739 | 111.42861 | 35865 ft | 496 kts | 34° |
| 2026-05-07 23:23 | 9.94346 | 111.46945 | 35866 ft | 496 kts | 34° |
| 2026-05-07 23:23 | 9.99941 | 111.51025 | 35865 ft | 495 kts | 34° |
| 2026-05-07 23:24 | 10.05534 | 111.55104 | 35864 ft | 495 kts | 34° |
| 2026-05-07 23:24 | 10.11128 | 111.59184 | 35864 ft | 494 kts | 34° |
| 2026-05-07 23:25 | 10.16709 | 111.63257 | 35866 ft | 494 kts | 34° |
| 2026-05-07 23:25 | 10.22292 | 111.67332 | 35865 ft | 494 kts | 34° |
| 2026-05-07 23:26 | 10.27864 | 111.71402 | 35863 ft | 494 kts | 34° |
| 2026-05-07 23:26 | 10.33427 | 111.75466 | 35860 ft | 494 kts | 34° |
| 2026-05-07 23:27 | 10.41750 | 111.81552 | 35866 ft | 493 kts | 34° |
| 2026-05-07 23:27 | 10.47313 | 111.85622 | 35866 ft | 493 kts | 35° |
| 2026-05-07 23:28 | 10.52923 | 111.89727 | 35866 ft | 493 kts | 34° |
| 2026-05-07 23:28 | 10.58490 | 111.93802 | 35861 ft | 493 kts | 35° |
| 2026-05-07 23:29 | 10.64051 | 111.97877 | 35866 ft | 493 kts | 35° |
| 2026-05-07 23:29 | 10.69572 | 112.01923 | 35867 ft | 493 kts | 35° |
| 2026-05-07 23:30 | 10.75129 | 112.05998 | 35865 ft | 493 kts | 35° |
| 2026-05-07 23:30 | 10.80689 | 112.10076 | 35871 ft | 492 kts | 35° |
| 2026-05-07 23:31 | 10.86224 | 112.14138 | 35864 ft | 492 kts | 35° |
| 2026-05-07 23:31 | 10.91782 | 112.18219 | 35868 ft | 492 kts | 35° |
| 2026-05-07 23:32 | 10.97325 | 112.22292 | 35866 ft | 492 kts | 35° |
| 2026-05-07 23:32 | 11.02888 | 112.26358 | 35866 ft | 492 kts | 34° |
| 2026-05-07 23:33 | 11.08445 | 112.30417 | 35865 ft | 491 kts | 34° |
| 2026-05-07 23:33 | 11.14000 | 112.34479 | 35868 ft | 491 kts | 34° |
| 2026-05-07 23:34 | 11.19550 | 112.38543 | 35873 ft | 491 kts | 34° |
| 2026-05-07 23:34 | 11.25098 | 112.42607 | 35874 ft | 491 kts | 34° |
| 2026-05-07 23:35 | 11.30646 | 112.46674 | 35874 ft | 491 kts | 34° |
| 2026-05-07 23:35 | 11.36190 | 112.50739 | 35872 ft | 491 kts | 34° |
| 2026-05-07 23:36 | 11.40801 | 112.54122 | 35870 ft | 491 kts | 34° |
| 2026-05-07 23:36 | 11.46324 | 112.58175 | 35872 ft | 491 kts | 34° |
| 2026-05-07 23:37 | 11.51860 | 112.62252 | 35873 ft | 491 kts | 35° |
| 2026-05-07 23:37 | 11.57411 | 112.66340 | 35872 ft | 491 kts | 35° |
| 2026-05-07 23:38 | 11.62945 | 112.70419 | 35876 ft | 491 kts | 35° |
| 2026-05-07 23:38 | 11.68493 | 112.74510 | 35871 ft | 491 kts | 35° |
| 2026-05-07 23:39 | 11.74034 | 112.78599 | 35872 ft | 492 kts | 35° |
| 2026-05-07 23:39 | 11.79574 | 112.82688 | 35878 ft | 492 kts | 35° |
| 2026-05-07 23:40 | 11.85115 | 112.86781 | 35878 ft | 492 kts | 35° |
| 2026-05-07 23:40 | 11.90636 | 112.90861 | 35877 ft | 492 kts | 35° |
| 2026-05-07 23:41 | 11.96200 | 112.94975 | 35877 ft | 492 kts | 35° |
| 2026-05-07 23:41 | 12.01726 | 112.99062 | 35873 ft | 492 kts | 35° |
| 2026-05-07 23:42 | 12.07261 | 113.03159 | 35877 ft | 492 kts | 35° |
| 2026-05-07 23:42 | 12.12808 | 113.07267 | 35881 ft | 492 kts | 35° |
| 2026-05-07 23:43 | 12.18340 | 113.11366 | 35880 ft | 492 kts | 35° |
| 2026-05-07 23:43 | 12.23887 | 113.15478 | 35880 ft | 492 kts | 35° |
| 2026-05-07 23:44 | 12.29419 | 113.19581 | 35876 ft | 492 kts | 35° |
| 2026-05-07 23:44 | 12.34954 | 113.23689 | 35878 ft | 491 kts | 35° |
| 2026-05-07 23:45 | 12.40446 | 113.27772 | 35877 ft | 491 kts | 35° |
| 2026-05-07 23:45 | 12.45984 | 113.31875 | 35877 ft | 491 kts | 35° |
| 2026-05-07 23:46 | 12.51524 | 113.35977 | 35882 ft | 491 kts | 35° |
| 2026-05-07 23:46 | 12.57035 | 113.40064 | 35884 ft | 491 kts | 35° |
| 2026-05-07 23:47 | 12.62563 | 113.44168 | 35882 ft | 491 kts | 35° |
| 2026-05-07 23:47 | 12.68088 | 113.48273 | 35885 ft | 491 kts | 35° |
| 2026-05-07 23:48 | 12.73615 | 113.52382 | 35882 ft | 491 kts | 35° |
| 2026-05-07 23:48 | 12.79138 | 113.56490 | 35883 ft | 490 kts | 35° |
| 2026-05-07 23:49 | 12.84660 | 113.60598 | 35884 ft | 490 kts | 35° |
| 2026-05-07 23:49 | 12.90176 | 113.64706 | 35880 ft | 490 kts | 35° |
| 2026-05-07 23:50 | 12.95695 | 113.68817 | 35886 ft | 490 kts | 35° |
| 2026-05-07 23:50 | 13.01205 | 113.72924 | 35890 ft | 490 kts | 35° |
| 2026-05-07 23:51 | 13.06714 | 113.77033 | 35887 ft | 490 kts | 35° |
| 2026-05-07 23:51 | 13.12206 | 113.81131 | 35887 ft | 490 kts | 35° |
| 2026-05-07 23:52 | 13.17718 | 113.85246 | 35890 ft | 490 kts | 35° |
| 2026-05-07 23:52 | 13.23186 | 113.89331 | 35894 ft | 489 kts | 35° |
| 2026-05-07 23:53 | 13.28688 | 113.93444 | 35891 ft | 489 kts | 35° |
| 2026-05-07 23:53 | 13.34184 | 113.97555 | 35891 ft | 489 kts | 35° |
| 2026-05-07 23:54 | 13.39677 | 114.01666 | 35893 ft | 489 kts | 35° |
| 2026-05-07 23:54 | 13.45173 | 114.05781 | 35895 ft | 489 kts | 35° |
| 2026-05-07 23:55 | 13.50668 | 114.09897 | 35889 ft | 489 kts | 35° |
| 2026-05-07 23:55 | 13.56159 | 114.14014 | 35891 ft | 488 kts | 35° |
| 2026-05-07 23:56 | 13.61644 | 114.18128 | 35896 ft | 488 kts | 35° |
| 2026-05-07 23:56 | 13.67119 | 114.22237 | 35898 ft | 488 kts | 35° |
| 2026-05-07 23:57 | 13.72601 | 114.26354 | 35896 ft | 488 kts | 35° |
| 2026-05-07 23:57 | 13.78081 | 114.30472 | 35895 ft | 488 kts | 35° |
| 2026-05-07 23:58 | 13.83557 | 114.34589 | 35895 ft | 488 kts | 35° |
| 2026-05-07 23:58 | 13.89036 | 114.38712 | 35894 ft | 488 kts | 35° |
| 2026-05-07 23:59 | 13.94509 | 114.42832 | 35894 ft | 488 kts | 35° |
| 2026-05-07 23:59 | 13.99602 | 114.47450 | 35890 ft | 488 kts | 44° |
| 2026-05-08 00:00 | 14.04313 | 114.52487 | 35896 ft | 489 kts | 45° |
| 2026-05-08 00:00 | 14.08972 | 114.57589 | 35894 ft | 489 kts | 46° |
| 2026-05-08 00:01 | 14.13602 | 114.62663 | 35895 ft | 489 kts | 45° |
| 2026-05-08 00:01 | 14.18278 | 114.67771 | 35897 ft | 488 kts | 45° |
| 2026-05-08 00:02 | 14.22943 | 114.72862 | 35896 ft | 488 kts | 45° |
| 2026-05-08 00:02 | 14.26933 | 114.77217 | 35897 ft | 488 kts | 45° |